createdAt,value
2022-11-03T00:02:29.368Z,35
2022-11-03T00:07:31.423Z,15
2022-11-03T00:12:33.415Z,14.3
2022-11-03T00:17:35.472Z,14.5
2022-11-03T00:22:40.364Z,13.6
2022-11-03T00:27:42.384Z,14.2
2022-11-03T00:32:44.468Z,13
2022-11-03T00:37:46.459Z,22.5
2022-11-03T00:42:48.482Z,13.1
2022-11-03T00:47:50.582Z,13.1
2022-11-03T00:52:53.916Z,12.7
2022-11-03T00:57:56.373Z,13.5
2022-11-03T01:02:58.863Z,13
2022-11-03T01:08:01.000Z,13.3
2022-11-03T01:13:03.036Z,12.7
2022-11-03T01:18:05.903Z,13.3
2022-11-03T01:23:08.564Z,12.9
2022-11-03T01:28:10.995Z,12.7
2022-11-03T01:33:13.015Z,13.7
2022-11-03T01:38:15.934Z,12.8
2022-11-03T01:43:18.170Z,13.8
2022-11-03T01:48:20.145Z,13.2
2022-11-03T01:53:22.168Z,12.8
2022-11-03T01:58:24.214Z,13.5
2022-11-03T02:03:26.334Z,13
2022-11-03T02:08:28.344Z,13
2022-11-03T02:13:30.460Z,13.5
2022-11-03T02:18:32.425Z,12.8
2022-11-03T02:23:34.380Z,13.1
2022-11-03T02:28:36.366Z,12.7
2022-11-03T02:33:38.550Z,13.9
2022-11-03T02:38:40.519Z,14.3
2022-11-03T02:43:42.626Z,13.3
2022-11-03T02:48:44.896Z,14
2022-11-03T02:53:47.218Z,14.2
2022-11-03T02:58:49.297Z,13.1
2022-11-03T03:03:51.288Z,13.2
2022-11-03T03:08:55.972Z,13.1
2022-11-03T03:13:58.256Z,13.4
2022-11-03T03:19:00.606Z,13.4
2022-11-03T03:24:02.626Z,13
2022-11-03T03:29:04.573Z,12.5
2022-11-03T03:34:34.350Z,13.5
2022-11-03T03:39:07.916Z,13.2
2022-11-03T03:44:09.973Z,13.6
2022-11-03T03:49:12.212Z,13.5
2022-11-03T03:54:14.463Z,14.2
2022-11-03T03:59:16.671Z,14.8
2022-11-03T04:04:18.965Z,15
2022-11-03T04:09:21.179Z,14.2
2022-11-03T04:14:23.289Z,13.7
2022-11-03T04:19:25.282Z,14.4
2022-11-03T04:24:27.376Z,14.4
2022-11-03T04:29:29.805Z,15
2022-11-03T04:34:32.067Z,14.2
2022-11-03T04:39:34.267Z,15.3
2022-11-03T04:44:36.913Z,15
2022-11-03T04:49:38.973Z,13.7
2022-11-03T04:54:40.954Z,13.3
2022-11-03T04:59:43.450Z,12.8
2022-11-03T05:04:46.133Z,11.9
2022-11-03T05:09:48.089Z,11.6
2022-11-03T05:14:57.984Z,15
2022-11-03T05:19:50.998Z,15.2
2022-11-03T05:24:53.012Z,15.4
2022-11-03T05:30:00.712Z,15.8
2022-11-03T05:35:03.779Z,16.1
2022-11-03T05:40:06.006Z,16
2022-11-03T05:45:08.009Z,16
2022-11-03T05:50:10.045Z,16.8
2022-11-03T05:55:12.022Z,17
2022-11-03T06:00:14.053Z,17.7
2022-11-03T06:05:16.117Z,19.2
2022-11-03T06:10:18.181Z,20
2022-11-03T06:15:20.268Z,18.9
2022-11-03T06:20:22.288Z,18.6
2022-11-03T06:25:24.231Z,19.4
2022-11-03T06:30:26.351Z,20.9
2022-11-03T06:35:28.692Z,21.1
2022-11-03T06:40:30.751Z,20
2022-11-03T06:45:32.762Z,26.6
2022-11-03T06:46:45.276Z,24.2
2022-11-03T06:51:47.382Z,20.5
2022-11-03T07:01:51.981Z,27.2
2022-11-03T07:06:55.147Z,17.7
2022-11-03T07:11:57.336Z,17.7
2022-11-03T07:16:59.522Z,19.2
2022-11-03T07:22:01.536Z,20.2
2022-11-03T07:27:03.589Z,19.6
2022-11-03T07:32:06.320Z,19.6
2022-11-03T07:37:08.753Z,18.8
2022-11-03T07:42:10.945Z,23.1
2022-11-03T07:47:12.939Z,18.2
2022-11-03T07:52:14.847Z,18
2022-11-03T07:57:17.039Z,25.5
2022-11-03T08:02:17.884Z,18.6
2022-11-03T08:07:20.149Z,18.3
2022-11-03T08:12:22.075Z,17.8
2022-11-03T08:17:23.970Z,18.7
2022-11-03T08:22:26.537Z,18.9
2022-11-03T08:27:29.530Z,18.1
2022-11-03T08:32:31.741Z,18.4
2022-11-03T08:37:34.083Z,18.4
2022-11-03T08:42:36.089Z,17.1
2022-11-03T08:47:38.135Z,16.8
2022-11-03T08:52:40.248Z,16.7
2022-11-03T08:57:42.136Z,17.7
2022-11-03T09:02:44.405Z,18.4
2022-11-03T09:12:48.767Z,21.1
2022-11-03T09:17:50.785Z,21.5
2022-11-03T09:22:52.784Z,16.5
2022-11-03T09:27:54.688Z,13.6
2022-11-03T09:32:56.829Z,13.7
2022-11-03T09:37:59.015Z,13.9
2022-11-03T09:43:01.114Z,13.9
2022-11-03T09:48:03.200Z,15.2
2022-11-03T09:53:07.304Z,15.3
2022-11-03T09:58:10.580Z,14.4
2022-11-03T10:03:12.915Z,14.7
2022-11-03T10:08:21.395Z,14.3
2022-11-03T10:13:14.981Z,14.1
2022-11-03T10:18:17.190Z,15.3
2022-11-03T10:23:19.200Z,14.9
2022-11-03T10:28:21.213Z,13.7
2022-11-03T10:33:23.288Z,15.1
2022-11-03T10:38:25.347Z,14.2
2022-11-03T10:43:27.492Z,14
2022-11-03T10:48:29.539Z,14.5
2022-11-03T10:53:31.709Z,14.2
2022-11-03T10:58:33.916Z,14.2
2022-11-03T11:03:36.036Z,25
2022-11-03T11:08:38.026Z,13.5
2022-11-03T11:13:40.167Z,13.8
2022-11-03T11:18:42.180Z,13.6
2022-11-03T11:23:44.126Z,13.6
2022-11-03T11:28:46.084Z,13.9
2022-11-03T11:33:48.154Z,14.2
2022-11-03T11:38:50.209Z,14.5
2022-11-03T11:43:53.113Z,15.3
2022-11-03T11:48:56.623Z,16
2022-11-03T11:54:18.602Z,16.3
2022-11-03T11:59:00.793Z,15.6
2022-11-03T12:09:05.964Z,16.3
2022-11-03T12:14:07.923Z,16.6
2022-11-03T12:19:09.927Z,17.4
2022-11-03T12:24:12.104Z,18
2022-11-03T12:29:14.151Z,17.6
2022-11-03T12:34:16.202Z,18.3
2022-11-03T12:39:18.599Z,19.8
2022-11-03T12:44:21.201Z,19.9
2022-11-03T12:49:23.830Z,21.8
2022-11-03T12:54:26.108Z,21.7
2022-11-03T12:59:28.335Z,21.2
2022-11-03T13:04:30.424Z,22.8
2022-11-03T13:09:32.340Z,20.6
2022-11-03T13:14:34.481Z,46.1
2022-11-03T13:19:36.431Z,18.6
2022-11-03T13:24:38.494Z,19.6
2022-11-03T13:29:41.185Z,19.1
2022-11-03T13:34:43.421Z,20.4
2022-11-03T13:39:45.556Z,20.6
2022-11-03T13:44:47.569Z,21.2
2022-11-03T13:50:20.130Z,22.5
2022-11-03T14:00:04.970Z,21.5
2022-11-03T14:05:11.637Z,21.4
2022-11-03T14:10:32.431Z,20.3
2022-11-03T14:15:17.945Z,20.4
2022-11-03T14:20:20.573Z,19.2
2022-11-03T14:25:22.630Z,18.4
2022-11-03T14:30:24.560Z,18.8
2022-11-03T14:35:26.445Z,24.2
2022-11-03T14:40:28.501Z,19.5
2022-11-03T14:45:30.622Z,18.8
2022-11-03T14:50:32.798Z,19.2
2022-11-03T14:55:35.000Z,18.9
2022-11-03T15:00:36.909Z,18.7
2022-11-03T15:05:39.184Z,20.7
2022-11-03T15:10:41.424Z,20.1
2022-11-03T15:15:43.515Z,20.7
2022-11-03T15:20:45.473Z,19.9
2022-11-03T15:25:47.749Z,22.2
2022-11-03T15:30:50.029Z,22.3
2022-11-03T15:35:52.104Z,31.8
2022-11-03T15:45:56.896Z,25.5
2022-11-03T15:56:01.395Z,26.2
2022-11-03T16:01:04.171Z,24.8
2022-11-03T16:06:07.026Z,26.4
2022-11-03T16:11:10.074Z,28.4
2022-11-03T16:16:12.494Z,27.6
2022-11-03T16:21:14.542Z,29.7
2022-11-03T16:26:16.986Z,30.1
2022-11-03T16:31:19.226Z,29.9
2022-11-03T16:36:21.279Z,30.4
2022-11-03T16:41:23.780Z,51.4
2022-11-03T16:46:26.182Z,31.1
2022-11-03T16:51:28.207Z,31.6
2022-11-03T16:56:30.288Z,33
2022-11-03T17:01:32.550Z,35.5
2022-11-03T17:06:35.383Z,37.2
2022-11-03T17:11:37.497Z,36.4
2022-11-03T17:16:39.579Z,36.4
2022-11-03T17:21:41.627Z,34.9
2022-11-03T17:26:44.201Z,33.2
2022-11-03T17:31:46.445Z,31.3
2022-11-03T17:36:48.404Z,32.1
2022-11-03T17:41:50.980Z,32.1
2022-11-03T17:46:53.355Z,32.3
2022-11-03T17:51:55.464Z,32.4
2022-11-03T17:56:59.742Z,33.6
2022-11-03T18:02:02.003Z,32.4
2022-11-03T18:07:05.340Z,32.7
2022-11-03T18:12:07.444Z,32.2
2022-11-03T18:17:09.534Z,34.3
2022-11-03T18:22:11.566Z,32.3
2022-11-03T18:27:13.548Z,32
2022-11-03T18:32:15.516Z,30.3
2022-11-03T18:37:17.983Z,29.4
2022-11-03T18:42:20.146Z,26.9
2022-11-03T18:47:22.326Z,25.3
2022-11-03T18:52:24.929Z,25.1
2022-11-03T18:57:27.392Z,24.6
2022-11-03T19:02:29.808Z,22.5
2022-11-03T19:07:32.268Z,21.6
2022-11-03T19:17:41.243Z,19.6
2022-11-03T19:22:43.716Z,20.5
2022-11-03T19:27:45.947Z,19.8
2022-11-03T19:32:47.943Z,19.8
2022-11-03T19:42:54.411Z,18.5
2022-11-03T19:48:24.716Z,18.4
2022-11-03T19:52:58.660Z,18.9
2022-11-03T19:58:00.654Z,16.6
2022-11-03T20:03:05.454Z,16.9
2022-11-03T20:08:09.216Z,17.4
2022-11-03T20:13:12.193Z,16.6
2022-11-03T20:18:14.247Z,16.6
2022-11-03T20:23:16.317Z,17.4
2022-11-03T20:28:18.373Z,16.8
2022-11-03T20:33:20.296Z,16.7
2022-11-03T20:38:22.288Z,17
2022-11-03T20:43:24.524Z,16.9
2022-11-03T20:48:26.540Z,16.7
2022-11-03T20:53:28.515Z,17.3
2022-11-03T20:58:30.831Z,17.5
2022-11-03T21:04:01.838Z,18.3
2022-11-03T21:08:34.202Z,17.1
2022-11-03T21:13:36.399Z,16.8
2022-11-03T21:18:38.740Z,16.9
2022-11-03T21:23:41.090Z,16.8
2022-11-03T21:28:43.065Z,16.7
2022-11-03T21:33:45.270Z,18
2022-11-03T21:38:47.434Z,16.1
2022-11-03T21:43:49.838Z,16.8
2022-11-03T21:48:51.870Z,16.8
2022-11-03T21:53:53.960Z,16.2
2022-11-03T21:58:57.181Z,16.3
2022-11-03T22:03:59.464Z,16.7
2022-11-03T22:09:01.417Z,15.4
2022-11-03T22:14:04.017Z,15
2022-11-03T22:19:06.169Z,14.7
2022-11-03T22:24:08.140Z,15.8
2022-11-03T22:29:10.585Z,16.3
2022-11-03T22:34:12.714Z,15.4
2022-11-03T22:39:14.713Z,15.5
2022-11-03T22:44:17.183Z,16
2022-11-03T22:49:19.426Z,16.1
2022-11-03T22:54:21.381Z,16.2
2022-11-03T22:59:23.731Z,15.8
2022-11-03T23:04:25.866Z,15.6
2022-11-03T23:09:27.804Z,16.2
2022-11-03T23:14:30.260Z,15.6
2022-11-03T23:19:32.851Z,16.5
2022-11-03T23:24:35.247Z,16.8
2022-11-03T23:29:36.548Z,16.6
2022-11-03T23:34:38.669Z,16.8
2022-11-03T23:44:42.988Z,16.8
2022-11-03T23:49:44.929Z,19
2022-11-03T23:54:47.906Z,28.9
2022-11-03T23:59:48.359Z,19.8
